Terminal Aerodrome Forecast
Issued by NWS Mt. Holly, NJ

Home | Current Version | Previous Version | Text Only | Print | Product List | Glossary On
Versions: 1 2 3 4 5 6 7 8 9 10 11 12 13 14 15 16 17
000
FTUS41 KPHI 122320
TAFABE
TAF
KABE 122320Z 1300/1324 29013G23KT P6SM VCSH BKN035
     FM131500 28013G28KT P6SM SCT035
     FM131900 28013KT P6SM SCT250=

USA.gov is the U.S. government's official web portal to all federal, state and local government web resources and services.